createdAt,value
2019-02-08T00:00:50.196Z,2.77
2019-02-08T00:03:17.277Z,3.60
2019-02-08T00:05:44.332Z,3.30
2019-02-08T00:08:11.400Z,2.70
2019-02-08T00:10:38.776Z,2.57
2019-02-08T00:13:07.077Z,2.63
2019-02-08T00:15:34.219Z,3.13
2019-02-08T00:18:01.335Z,2.77
2019-02-08T00:20:28.400Z,2.33
2019-02-08T00:22:55.448Z,3.67
2019-02-08T00:25:22.726Z,2.80
2019-02-08T00:27:49.842Z,2.53
2019-02-08T00:30:19.477Z,4.10
2019-02-08T00:32:46.639Z,2.83
2019-02-08T00:35:13.677Z,2.70
2019-02-08T00:37:40.836Z,2.90
2019-02-08T00:40:09.831Z,2.50
2019-02-08T00:42:36.873Z,2.73
2019-02-08T00:45:05.046Z,2.80
2019-02-08T00:47:32.373Z,2.67
2019-02-08T00:49:59.440Z,2.30
2019-02-08T00:52:26.490Z,2.40
2019-02-08T00:54:53.583Z,2.87
2019-02-08T00:57:20.635Z,3.20
2019-02-08T00:59:47.685Z,2.83
2019-02-08T01:02:14.769Z,2.80
2019-02-08T01:04:41.803Z,3.03
2019-02-08T01:07:09.351Z,2.70
2019-02-08T01:09:36.445Z,3.27
2019-02-08T01:12:03.909Z,3.07
2019-02-08T01:14:31.489Z,2.80
2019-02-08T01:16:58.569Z,2.80
2019-02-08T01:19:25.617Z,2.90
2019-02-08T01:21:52.678Z,2.53
2019-02-08T01:24:19.764Z,2.87
2019-02-08T01:26:46.840Z,2.97
2019-02-08T01:29:13.879Z,2.50
2019-02-08T01:31:40.970Z,2.53
2019-02-08T01:34:08.052Z,2.63
2019-02-08T01:36:35.088Z,2.40
2019-02-08T01:39:02.153Z,2.93
2019-02-08T01:41:29.196Z,3.03
2019-02-08T01:43:56.318Z,2.27
2019-02-08T01:46:23.508Z,2.37
2019-02-08T01:48:50.558Z,2.93
2019-02-08T01:51:17.672Z,2.70
2019-02-08T01:53:48.677Z,2.40
2019-02-08T01:56:13.660Z,2.17
2019-02-08T01:58:40.764Z,2.83
2019-02-08T02:01:07.812Z,1.50
2019-02-08T02:03:34.856Z,2.70
2019-02-08T02:06:01.930Z,2.37
2019-02-08T02:08:29.019Z,2.80
2019-02-08T02:10:56.066Z,2.33
2019-02-08T02:13:23.254Z,2.50
2019-02-08T02:15:50.297Z,2.87
2019-02-08T02:18:17.338Z,2.37
2019-02-08T02:20:44.530Z,2.33
2019-02-08T02:23:15.360Z,2.87
2019-02-08T02:25:43.449Z,2.63
2019-02-08T02:28:10.739Z,2.50
2019-02-08T02:30:37.820Z,2.60
2019-02-08T02:33:06.531Z,1.90
2019-02-08T02:35:33.573Z,2.40
2019-02-08T02:38:00.665Z,3.00
2019-02-08T02:40:27.724Z,2.60
2019-02-08T02:42:54.794Z,2.70
2019-02-08T02:45:24.330Z,2.20
2019-02-08T02:47:51.467Z,2.87
2019-02-08T02:50:19.117Z,2.87
2019-02-08T02:52:46.251Z,2.40
2019-02-08T02:55:13.639Z,2.23
2019-02-08T02:57:40.728Z,2.60
2019-02-08T03:00:11.880Z,2.10
2019-02-08T03:02:38.931Z,2.07
2019-02-08T03:05:06.338Z,3.07
2019-02-08T03:07:33.400Z,2.17
2019-02-08T03:10:00.447Z,2.83
2019-02-08T03:12:27.542Z,2.63
2019-02-08T03:14:54.597Z,2.30
2019-02-08T03:17:21.708Z,2.80
2019-02-08T03:19:48.829Z,2.57
2019-02-08T03:22:15.861Z,2.93
2019-02-08T03:24:42.905Z,3.10
2019-02-08T03:27:09.990Z,2.67
2019-02-08T03:29:37.029Z,2.33
2019-02-08T03:32:04.128Z,3.30
2019-02-08T03:34:31.217Z,2.47
2019-02-08T03:36:58.274Z,2.37
2019-02-08T03:39:25.312Z,2.57
2019-02-08T03:41:52.384Z,3.00
2019-02-08T03:44:19.431Z,3.17
2019-02-08T03:46:46.518Z,2.73
2019-02-08T03:49:13.598Z,2.63
2019-02-08T03:51:40.765Z,3.23
2019-02-08T03:54:07.816Z,3.37
2019-02-08T03:56:34.891Z,3.00
2019-02-08T03:59:01.968Z,3.17
2019-02-08T04:01:29.017Z,3.50
2019-02-08T04:04:11.488Z,4.00
2019-02-08T04:06:38.540Z,3.00
2019-02-08T04:09:07.375Z,3.63
2019-02-08T04:11:34.464Z,3.27
2019-02-08T04:14:01.506Z,4.00
2019-02-08T04:16:28.549Z,3.50
2019-02-08T04:18:55.827Z,4.30
2019-02-08T04:21:22.859Z,4.53
2019-02-08T04:23:49.915Z,4.43
2019-02-08T04:26:17.000Z,4.63
2019-02-08T04:28:44.077Z,4.63
2019-02-08T04:31:11.225Z,4.87
2019-02-08T04:33:38.314Z,4.83
2019-02-08T04:36:05.361Z,4.50
2019-02-08T04:38:32.406Z,4.80
2019-02-08T04:40:59.517Z,4.80
2019-02-08T04:43:26.557Z,5.47
2019-02-08T04:45:53.616Z,5.03
2019-02-08T04:48:20.770Z,5.63
2019-02-08T04:50:47.827Z,5.83
2019-02-08T04:53:14.886Z,5.93
2019-02-08T04:55:41.969Z,5.10
2019-02-08T04:58:09.035Z,7.27
2019-02-08T05:00:36.414Z,5.90
2019-02-08T05:03:04.070Z,5.63
2019-02-08T05:05:31.117Z,6.10
2019-02-08T05:07:58.277Z,6.50
2019-02-08T05:10:27.023Z,6.43
2019-02-08T05:12:54.072Z,6.43
2019-02-08T05:15:23.060Z,6.30
2019-02-08T05:17:50.405Z,6.83
2019-02-08T05:20:18.793Z,6.00
2019-02-08T05:22:45.869Z,7.00
2019-02-08T05:25:13.672Z,5.80
2019-02-08T05:27:40.720Z,6.70
2019-02-08T05:30:12.280Z,6.43
2019-02-08T05:32:39.349Z,6.73
2019-02-08T05:35:07.023Z,5.87
2019-02-08T05:37:34.161Z,6.77
2019-02-08T05:40:01.227Z,6.27
2019-02-08T05:42:28.269Z,5.70
2019-02-08T05:44:55.385Z,6.33
2019-02-08T05:47:22.423Z,5.80
2019-02-08T05:49:49.515Z,6.37
2019-02-08T05:52:16.618Z,6.50
2019-02-08T05:54:43.664Z,6.07
2019-02-08T05:57:10.716Z,7.20
2019-02-08T05:59:37.831Z,5.80
2019-02-08T06:02:05.330Z,4.90
2019-02-08T06:04:32.366Z,4.93
2019-02-08T06:06:59.471Z,5.33
2019-02-08T06:09:26.554Z,6.00
2019-02-08T06:11:53.638Z,5.30
2019-02-08T06:14:20.761Z,5.83
2019-02-08T06:16:47.818Z,6.27
2019-02-08T06:19:14.863Z,5.83
2019-02-08T06:21:41.964Z,5.63
2019-02-08T06:24:09.022Z,5.07
2019-02-08T06:26:36.099Z,5.60
2019-02-08T06:29:03.506Z,5.00
2019-02-08T06:31:30.595Z,6.37
2019-02-08T06:33:57.691Z,6.27
2019-02-08T06:36:24.822Z,5.13
2019-02-08T06:38:52.053Z,4.80
2019-02-08T06:41:19.121Z,5.47
2019-02-08T06:43:46.318Z,5.00
2019-02-08T06:46:13.394Z,4.80
2019-02-08T06:48:40.475Z,5.07
2019-02-08T06:51:07.559Z,4.77
2019-02-08T06:53:34.610Z,5.37
2019-02-08T06:56:01.709Z,4.80
2019-02-08T06:58:42.564Z,4.40
2019-02-08T07:01:22.347Z,4.30
2019-02-08T07:04:15.078Z,4.47
2019-02-08T07:07:06.225Z,4.40
2019-02-08T07:09:58.945Z,4.00
2019-02-08T07:12:38.524Z,4.53
2019-02-08T07:15:24.065Z,4.30
2019-02-08T07:18:25.896Z,4.93
2019-02-08T07:21:12.569Z,3.53
2019-02-08T07:23:59.218Z,3.30
2019-02-08T07:26:46.076Z,3.73
2019-02-08T07:32:28.376Z,3.17
2019-02-08T07:35:14.037Z,3.07
2019-02-08T07:41:05.348Z,3.40
2019-02-08T07:43:55.435Z,3.30
2019-02-08T07:46:48.663Z,3.30
2019-02-08T07:49:35.639Z,3.20
2019-02-08T07:52:31.289Z,2.97
2019-02-08T07:55:26.088Z,3.30
2019-02-08T07:58:15.562Z,2.57
2019-02-08T08:01:08.649Z,2.67
2019-02-08T08:03:44.999Z,3.00
2019-02-08T08:06:41.279Z,2.50
2019-02-08T08:09:35.448Z,2.73
2019-02-08T08:12:27.953Z,2.30
2019-02-08T08:15:10.394Z,2.77
2019-02-08T08:18:03.025Z,3.10
2019-02-08T08:20:47.978Z,2.50
2019-02-08T08:23:32.559Z,3.10
2019-02-08T08:26:24.086Z,2.73
2019-02-08T08:29:09.143Z,3.00
2019-02-08T08:31:48.350Z,2.80
2019-02-08T08:34:31.199Z,2.13
2019-02-08T08:37:22.925Z,2.40
2019-02-08T08:40:42.533Z,2.60
2019-02-08T08:43:42.444Z,2.13
2019-02-08T08:46:52.057Z,2.87
2019-02-08T08:49:53.393Z,2.80
2019-02-08T08:53:00.445Z,2.63
2019-02-08T08:55:59.000Z,2.40
2019-02-08T08:59:06.817Z,2.40
2019-02-08T09:02:16.561Z,2.23
2019-02-08T09:05:13.915Z,2.03
2019-02-08T09:08:10.799Z,2.10
2019-02-08T09:11:34.613Z,2.73
2019-02-08T09:14:46.717Z,2.63
2019-02-08T09:18:10.502Z,2.03
2019-02-08T09:21:06.375Z,2.40
2019-02-08T09:24:09.294Z,2.17
2019-02-08T09:27:18.015Z,2.00
2019-02-08T09:30:18.506Z,2.10
2019-02-08T09:33:13.664Z,2.50
2019-02-08T09:36:31.184Z,1.77
2019-02-08T09:39:35.824Z,2.67
2019-02-08T09:42:18.216Z,2.00
2019-02-08T09:45:22.731Z,1.73
2019-02-08T09:48:25.450Z,2.33
2019-02-08T09:51:37.026Z,2.00
2019-02-08T09:54:27.398Z,1.67
2019-02-08T09:57:38.868Z,1.80
2019-02-08T10:00:50.201Z,1.73
2019-02-08T10:03:44.159Z,2.00
2019-02-08T10:07:05.015Z,1.70
2019-02-08T10:10:09.425Z,1.47
2019-02-08T10:13:32.159Z,1.60
2019-02-08T10:16:48.784Z,1.47
2019-02-08T10:20:16.930Z,1.70
2019-02-08T10:23:26.062Z,1.60
2019-02-08T10:26:32.110Z,1.40
2019-02-08T10:29:39.424Z,1.33
2019-02-08T10:32:59.044Z,2.10
2019-02-08T10:36:17.932Z,1.10
2019-02-08T10:39:33.107Z,1.13
2019-02-08T10:42:43.415Z,0.93
2019-02-08T10:45:49.272Z,1.40
2019-02-08T10:49:13.437Z,1.37
2019-02-08T10:52:16.781Z,1.10
2019-02-08T10:55:40.722Z,1.00
2019-02-08T10:59:03.122Z,1.00
2019-02-08T11:02:13.824Z,1.20
2019-02-08T11:05:28.596Z,0.90
2019-02-08T11:08:27.062Z,1.10
2019-02-08T11:11:24.998Z,1.20
2019-02-08T11:14:38.145Z,1.20
2019-02-08T11:17:34.026Z,1.23
2019-02-08T11:20:01.078Z,1.07
2019-02-08T11:22:28.119Z,1.13
2019-02-08T11:24:55.199Z,0.87
2019-02-08T11:27:22.760Z,1.30
2019-02-08T11:29:49.839Z,1.20
2019-02-08T11:32:16.972Z,1.10
2019-02-08T11:34:44.051Z,1.23
2019-02-08T11:37:11.209Z,1.93
2019-02-08T11:39:38.636Z,1.13
2019-02-08T11:42:05.687Z,0.97
2019-02-08T11:44:32.746Z,0.70
2019-02-08T11:46:59.868Z,1.40
2019-02-08T11:49:27.155Z,1.47
2019-02-08T11:51:54.226Z,1.43
2019-02-08T11:54:22.397Z,1.27
2019-02-08T11:56:49.456Z,1.30
2019-02-08T11:59:16.512Z,1.53
2019-02-08T12:01:46.324Z,1.37
2019-02-08T12:04:13.379Z,1.27
2019-02-08T12:06:40.418Z,1.30
2019-02-08T12:09:10.131Z,0.80
2019-02-08T12:11:37.183Z,1.13
2019-02-08T12:14:04.367Z,1.43
2019-02-08T12:16:31.449Z,1.43
2019-02-08T12:18:58.490Z,1.20
2019-02-08T12:21:25.606Z,1.10
2019-02-08T12:23:52.653Z,1.40
2019-02-08T12:26:19.708Z,1.50
2019-02-08T12:28:46.790Z,1.40
2019-02-08T12:31:13.831Z,1.23
2019-02-08T12:33:40.945Z,1.27
2019-02-08T12:36:08.122Z,1.00
2019-02-08T12:38:35.205Z,1.57
2019-02-08T12:41:09.503Z,1.20
2019-02-08T12:43:31.536Z,1.27
2019-02-08T12:45:58.829Z,1.50
2019-02-08T12:48:25.926Z,1.37
2019-02-08T12:50:53.006Z,1.50
2019-02-08T12:53:20.063Z,1.67
2019-02-08T12:55:47.170Z,1.43
2019-02-08T12:58:14.233Z,1.80
2019-02-08T13:00:41.309Z,1.83
2019-02-08T13:03:08.402Z,1.47
2019-02-08T13:05:35.670Z,2.00
2019-02-08T13:08:03.176Z,2.10
2019-02-08T13:10:30.390Z,1.97
2019-02-08T13:12:57.466Z,1.63
2019-02-08T13:15:24.516Z,1.87
2019-02-08T13:17:51.642Z,1.60
2019-02-08T13:20:18.753Z,1.50
2019-02-08T13:22:45.822Z,1.40
2019-02-08T13:25:13.661Z,2.43
2019-02-08T13:27:40.732Z,1.57
2019-02-08T13:30:19.479Z,1.30
2019-02-08T13:32:46.585Z,1.97
2019-02-08T13:35:13.803Z,2.43
2019-02-08T13:37:40.999Z,1.83
2019-02-08T13:40:09.997Z,1.90
2019-02-08T13:42:37.067Z,2.80
2019-02-08T13:45:04.875Z,2.50
2019-02-08T13:47:31.951Z,2.23
2019-02-08T13:49:59.008Z,2.70
2019-02-08T13:52:26.158Z,2.40
2019-02-08T13:54:53.192Z,2.87
2019-02-08T13:57:20.245Z,1.93
2019-02-08T13:59:47.352Z,2.50
2019-02-08T14:02:14.397Z,2.57
2019-02-08T14:04:41.484Z,3.27
2019-02-08T14:07:08.594Z,2.40
2019-02-08T14:09:41.963Z,4.00
2019-02-08T14:12:09.023Z,1.90
2019-02-08T14:14:36.124Z,3.47
2019-02-08T14:17:03.691Z,2.50
2019-02-08T14:19:30.889Z,2.03
2019-02-08T14:21:58.174Z,1.77
2019-02-08T14:24:25.253Z,2.10
2019-02-08T14:26:52.339Z,2.73
2019-02-08T14:29:19.584Z,1.90
2019-02-08T14:31:46.632Z,2.47
2019-02-08T14:34:13.753Z,2.60
2019-02-08T14:36:40.843Z,1.90
2019-02-08T14:39:09.383Z,2.00
2019-02-08T14:41:36.449Z,1.53
2019-02-08T14:44:03.579Z,1.83
2019-02-08T14:46:30.642Z,2.67
2019-02-08T14:48:57.717Z,2.57
2019-02-08T14:51:24.822Z,1.80
2019-02-08T14:53:51.924Z,1.77
2019-02-08T14:56:18.990Z,2.30
2019-02-08T14:58:46.097Z,2.27
2019-02-08T15:01:13.165Z,2.13
2019-02-08T15:03:40.235Z,2.50
2019-02-08T15:06:07.322Z,2.23
2019-02-08T15:08:34.427Z,1.80
2019-02-08T15:11:01.465Z,2.30
2019-02-08T15:13:28.561Z,2.27
2019-02-08T15:15:55.631Z,2.40
2019-02-08T15:18:22.678Z,2.07
2019-02-08T15:20:49.774Z,2.60
2019-02-08T15:23:18.077Z,2.40
2019-02-08T15:25:45.177Z,2.23
2019-02-08T15:28:15.934Z,2.97
2019-02-08T15:30:43.258Z,2.00
2019-02-08T15:33:10.345Z,2.40
2019-02-08T15:35:37.434Z,2.00
2019-02-08T15:38:05.140Z,2.23
2019-02-08T15:40:34.872Z,1.90
2019-02-08T15:43:01.999Z,2.07
2019-02-08T15:45:29.080Z,1.77
2019-02-08T15:47:56.300Z,1.73
2019-02-08T15:50:23.444Z,2.07
2019-02-08T15:52:50.515Z,2.23
2019-02-08T15:55:20.063Z,1.83
2019-02-08T15:57:47.175Z,1.90
2019-02-08T16:00:17.160Z,1.73
2019-02-08T16:02:44.215Z,1.87
2019-02-08T16:05:12.724Z,1.90
2019-02-08T16:07:39.816Z,2.57
2019-02-08T16:10:07.476Z,1.70
2019-02-08T16:12:34.683Z,2.07
2019-02-08T16:15:01.743Z,1.90
2019-02-08T16:17:28.822Z,1.90
2019-02-08T16:19:56.024Z,1.70
2019-02-08T16:22:23.226Z,1.60
2019-02-08T16:24:50.427Z,1.70
2019-02-08T16:27:17.494Z,1.47
2019-02-08T16:29:44.702Z,1.87
2019-02-08T16:32:17.768Z,2.10
2019-02-08T16:34:45.021Z,1.80
2019-02-08T16:37:12.134Z,2.63
2019-02-08T16:39:39.222Z,2.30
2019-02-08T16:42:06.609Z,4.20
2019-02-08T16:44:33.688Z,1.73
2019-02-08T16:47:00.889Z,1.73
2019-02-08T16:49:29.482Z,1.87
2019-02-08T16:51:56.639Z,1.77
2019-02-08T16:54:23.746Z,1.93
2019-02-08T16:56:50.786Z,1.53
2019-02-08T16:59:17.838Z,1.87
2019-02-08T17:01:44.945Z,1.43
2019-02-08T17:04:11.992Z,1.50
2019-02-08T17:06:39.080Z,1.77
2019-02-08T17:09:10.487Z,1.63
2019-02-08T17:11:37.639Z,1.60
2019-02-08T17:14:04.721Z,1.70
2019-02-08T17:16:31.833Z,2.13
2019-02-08T17:18:58.934Z,1.53
2019-02-08T17:21:26.163Z,1.17
2019-02-08T17:23:53.636Z,1.30
2019-02-08T17:26:20.740Z,1.83
2019-02-08T17:29:06.014Z,1.67
2019-02-08T17:31:33.299Z,1.33
2019-02-08T17:34:00.351Z,1.10
2019-02-08T17:36:27.452Z,1.37
2019-02-08T17:38:54.576Z,1.73
2019-02-08T17:41:21.687Z,1.47
2019-02-08T17:43:48.987Z,1.70
2019-02-08T17:46:16.084Z,1.20
2019-02-08T17:48:43.170Z,1.80
2019-02-08T17:51:10.273Z,1.80
2019-02-08T17:53:37.416Z,1.60
2019-02-08T17:56:04.490Z,2.13
2019-02-08T17:58:31.596Z,1.40
2019-02-08T18:00:59.077Z,1.73
2019-02-08T18:03:26.242Z,1.80
2019-02-08T18:05:53.385Z,1.50
2019-02-08T18:08:20.652Z,1.63
2019-02-08T18:10:47.937Z,1.90
2019-02-08T18:13:22.446Z,1.77
2019-02-08T18:15:49.584Z,2.03
2019-02-08T18:18:30.337Z,2.13
2019-02-08T18:21:00.326Z,1.63
2019-02-08T18:23:27.408Z,1.70
2019-02-08T18:25:54.622Z,1.47
2019-02-08T18:28:21.743Z,1.60
2019-02-08T18:30:48.826Z,1.63
2019-02-08T18:33:15.957Z,2.13
2019-02-08T18:35:43.258Z,1.40
2019-02-08T18:38:10.471Z,1.50
2019-02-08T18:40:37.607Z,1.93
2019-02-08T18:43:04.881Z,1.80
2019-02-08T18:45:32.007Z,1.97
2019-02-08T18:47:59.104Z,2.00
2019-02-08T18:50:34.049Z,1.97
2019-02-08T18:53:01.128Z,2.27
2019-02-08T18:55:28.334Z,2.20
2019-02-08T18:57:55.457Z,1.50
2019-02-08T19:00:24.807Z,1.87
2019-02-08T19:02:51.950Z,1.47
2019-02-08T19:05:19.029Z,1.80
2019-02-08T19:07:46.119Z,2.00
2019-02-08T19:10:15.338Z,2.53
2019-02-08T19:13:00.418Z,2.23
2019-02-08T19:15:27.545Z,2.03
2019-02-08T19:17:54.655Z,1.70
2019-02-08T19:20:22.415Z,1.57
2019-02-08T19:22:49.699Z,1.70
2019-02-08T19:25:19.338Z,1.63
2019-02-08T19:27:46.456Z,1.73
2019-02-08T19:30:16.213Z,1.50
2019-02-08T19:32:43.291Z,1.83
2019-02-08T19:35:10.681Z,1.83
2019-02-08T19:37:45.116Z,2.00
2019-02-08T19:40:17.730Z,1.87
2019-02-08T19:42:44.834Z,1.73
2019-02-08T19:45:13.315Z,1.80
2019-02-08T19:47:40.545Z,1.73
2019-02-08T19:50:09.733Z,1.70
2019-02-08T19:52:36.879Z,1.97
2019-02-08T19:55:06.789Z,2.10
2019-02-08T19:57:34.065Z,1.70
2019-02-08T20:00:01.205Z,1.47
2019-02-08T20:02:28.352Z,2.13
2019-02-08T20:04:55.621Z,2.20
2019-02-08T20:07:22.770Z,2.20
2019-02-08T20:09:50.000Z,2.10
2019-02-08T20:12:17.088Z,2.10
2019-02-08T20:14:44.226Z,2.30
2019-02-08T20:17:11.335Z,2.20
2019-02-08T20:19:38.428Z,1.80
2019-02-08T20:22:05.710Z,1.90
2019-02-08T20:24:32.776Z,1.80
2019-02-08T20:26:59.875Z,1.70
2019-02-08T20:29:26.956Z,1.70
2019-02-08T20:31:54.234Z,1.90
2019-02-08T20:34:21.353Z,1.97
2019-02-08T20:36:48.428Z,2.20
2019-02-08T20:39:15.658Z,2.60
2019-02-08T20:41:42.849Z,1.77
2019-02-08T20:44:09.950Z,2.27
2019-02-08T20:46:37.054Z,1.67
2019-02-08T20:49:04.318Z,1.70
2019-02-08T20:51:31.553Z,1.87
2019-02-08T20:53:58.708Z,1.70
2019-02-08T20:56:25.971Z,1.63
2019-02-08T20:58:53.027Z,2.10
2019-02-08T21:01:20.156Z,1.87
2019-02-08T21:03:47.238Z,3.37
2019-02-08T21:06:14.305Z,2.60
2019-02-08T21:08:41.470Z,1.87
2019-02-08T21:11:08.569Z,2.17
2019-02-08T21:13:35.672Z,2.57
2019-02-08T21:16:02.999Z,2.10
2019-02-08T21:18:30.084Z,2.80
2019-02-08T21:20:57.175Z,2.30
2019-02-08T21:23:24.499Z,1.60
2019-02-08T21:25:52.635Z,2.20
2019-02-08T21:28:19.820Z,1.90
2019-02-08T21:30:46.915Z,1.90
2019-02-08T21:33:14.212Z,2.33
2019-02-08T21:35:41.686Z,2.70
2019-02-08T21:38:09.016Z,2.47
2019-02-08T21:40:36.218Z,2.90
2019-02-08T21:43:04.482Z,2.20
2019-02-08T21:45:32.494Z,3.30
2019-02-08T21:48:00.267Z,2.53
2019-02-08T21:50:28.545Z,2.07
2019-02-08T21:52:55.628Z,2.40
2019-02-08T21:55:24.580Z,2.27
2019-02-08T21:57:51.813Z,2.00
2019-02-08T22:00:29.763Z,2.07
2019-02-08T22:02:57.764Z,2.20
2019-02-08T22:05:27.425Z,2.33
2019-02-08T22:07:54.505Z,2.23
2019-02-08T22:10:21.714Z,2.50
2019-02-08T22:12:48.856Z,2.70
2019-02-08T22:15:18.381Z,2.40
2019-02-08T22:18:21.624Z,3.10
2019-02-08T22:20:48.689Z,2.40
2019-02-08T22:23:15.781Z,2.70
2019-02-08T22:25:43.152Z,2.60
2019-02-08T22:28:10.220Z,2.27
2019-02-08T22:30:37.720Z,2.80
2019-02-08T22:33:05.843Z,3.13
2019-02-08T22:35:32.906Z,2.43
2019-02-08T22:38:00.028Z,2.57
2019-02-08T22:40:27.196Z,3.27
2019-02-08T22:42:54.289Z,2.03
2019-02-08T22:45:26.732Z,2.97
2019-02-08T22:47:53.842Z,2.97
2019-02-08T22:50:20.912Z,3.40
2019-02-08T22:52:48.062Z,3.40
2019-02-08T22:55:16.804Z,2.60
2019-02-08T22:57:43.908Z,2.57
2019-02-08T23:01:06.622Z,3.27
2019-02-08T23:03:36.256Z,2.83
2019-02-08T23:06:05.229Z,3.60
2019-02-08T23:08:32.400Z,3.93
2019-02-08T23:10:59.466Z,2.93
2019-02-08T23:13:26.670Z,3.83
2019-02-08T23:15:53.791Z,3.73
2019-02-08T23:18:20.897Z,3.33
2019-02-08T23:20:48.169Z,3.53
2019-02-08T23:23:15.245Z,3.17
2019-02-08T23:25:42.703Z,3.27
2019-02-08T23:28:09.757Z,4.13
2019-02-08T23:30:38.061Z,3.83
2019-02-08T23:33:05.218Z,3.73
2019-02-08T23:35:32.283Z,4.20
2019-02-08T23:37:59.367Z,2.87
2019-02-08T23:40:26.462Z,3.47
2019-02-08T23:42:53.576Z,3.20
2019-02-08T23:45:20.810Z,3.03
2019-02-08T23:47:48.121Z,3.30
2019-02-08T23:50:15.160Z,3.20
2019-02-08T23:52:42.237Z,3.07
2019-02-08T23:55:09.997Z,3.30
2019-02-08T23:57:37.052Z,2.57
